Time;durP1;ratioP1;P1;durP2;ratioP2;P2;SDS_P1;SDS_P2;PMS_P1;PMS_P2;Temp;Humidity;BMP_temperature;BMP_pressure;BME280_temperature;BME280_humidity;BME280_pressure;Samples;Min_cycle;Max_cycle;Signal;HPM_P1;HPM_P2
2022/11/22 00:01:19;;;;;;;;;;;;;;;10.59;60.22;99068.56;4986204;28;114516;-67
2022/11/22 00:03:45;;;;;;;;;;;;;;;10.59;60.14;99068.56;5009100;28;113352;-67
2022/11/22 00:06:12;;;;;;;;;;;;;;;10.61;60.23;99082.53;5000076;28;124100;-67
2022/11/22 00:08:39;;;;;;;;;;;;;;;10.61;60.12;99066.63;5007312;28;124770;-67
2022/11/22 00:11:06;;;;;;;;;;;;;;;10.61;60.24;99066.63;4986966;28;114757;-67
2022/11/22 00:13:33;;;;;;;;;;;;;;;10.62;60.11;99068.31;5006574;28;114898;-67
2022/11/22 00:16:00;;;;;;;;;;;;;;;10.63;60.01;99080.59;4981800;28;124053;-67
2022/11/22 00:18:28;;;;;;;;;;;;;;;10.65;60.07;99073.38;5008123;28;123989;-67
2022/11/22 00:20:55;;;;;;;;;;;;;;;10.65;59.92;99073.38;5007660;28;114730;-67
2022/11/22 00:23:22;;;;;;;;;;;;;;;10.66;60.16;99075.09;5010363;28;113143;-67
2022/11/22 00:25:49;;;;;;;;;;;;;;;10.67;59.96;99082.06;5009966;28;124061;-67
2022/11/22 00:28:16;;;;;;;;;;;;;;;10.66;59.97;99064.50;5005299;28;124478;-67
2022/11/22 00:30:42;;;;;;;;;;;;;;;10.66;60.05;99079.53;5005026;28;115235;-67
2022/11/22 00:33:09;;;;;;;;;;;;;;;10.65;59.94;99081.34;5011722;28;113460;-67
2022/11/22 00:35:36;;;;;;;;;;;;;;;10.65;59.95;99081.34;4987028;28;125068;-67
2022/11/22 00:38:03;;;;;;;;;;;;;;;10.65;59.98;99083.97;5000785;28;124586;-67
2022/11/22 00:40:30;;;;;;;;;;;;;;;10.66;60.07;99084.81;5003504;28;117041;-67
2022/11/22 00:42:57;;;;;;;;;;;;;;;10.67;60.06;99084.72;4968787;28;1117466;-67
2022/11/22 00:45:24;;;;;;;;;;;;;;;10.68;60.17;99078.47;4989669;28;124338;-67
2022/11/22 00:47:50;;;;;;;;;;;;;;;10.70;60.12;99076.56;5004820;28;124272;-67
2022/11/22 00:50:17;;;;;;;;;;;;;;;10.71;60.09;99078.22;5006239;28;114559;-67
2022/11/22 00:52:44;;;;;;;;;;;;;;;10.73;59.94;99075.47;5004992;28;113495;-67
2022/11/22 00:55:11;;;;;;;;;;;;;;;10.77;59.95;99091.97;5009341;28;125603;-67
2022/11/22 00:57:38;;;;;;;;;;;;;;;10.77;59.89;99087.50;4998186;28;123860;-67
2022/11/22 01:00:05;;;;;;;;;;;;;;;10.79;60.05;99082.13;5000282;28;114798;-67
2022/11/22 01:02:32;;;;;;;;;;;;;;;10.80;60.04;99086.47;4998154;28;114132;-67
2022/11/22 01:04:59;;;;;;;;;;;;;;;10.82;60.05;99084.53;4979408;28;123138;-67
2022/11/22 01:07:25;;;;;;;;;;;;;;;10.84;59.89;99087.91;4986304;28;123228;-67
2022/11/22 01:09:52;;;;;;;;;;;;;;;10.85;60.10;99086.94;4974042;28;114333;-67
2022/11/22 01:12:19;;;;;;;;;;;;;;;10.86;60.09;99091.28;5001115;28;114789;-67
2022/11/22 01:14:46;;;;;;;;;;;;;;;10.88;60.02;99089.38;5008620;28;124297;-67
2022/11/22 01:17:13;;;;;;;;;;;;;;;10.88;59.88;99090.22;5000074;28;124700;-67
2022/11/22 01:19:40;;;;;;;;;;;;;;;10.90;60.08;99087.44;4987158;28;113571;-67
2022/11/22 01:22:06;;;;;;;;;;;;;;;10.90;59.80;99087.44;4992159;28;113737;-67
2022/11/22 01:24:33;;;;;;;;;;;;;;;10.91;60.08;99087.34;5008920;28;124151;-67
2022/11/22 01:27:00;;;;;;;;;;;;;;;10.92;59.99;99074.94;5003364;28;123822;-67
2022/11/22 01:29:27;;;;;;;;;;;;;;;10.94;59.96;99078.31;4993561;28;114107;-67
2022/11/22 01:31:54;;;;;;;;;;;;;;;10.96;59.91;99076.38;5004917;28;114880;-67
2022/11/22 01:34:21;;;;;;;;;;;;;;;10.98;59.99;99074.50;4996964;28;124609;-67
2022/11/22 01:36:48;;;;;;;;;;;;;;;10.98;59.95;99079.78;5000988;28;122569;-67
2022/11/22 01:39:15;;;;;;;;;;;;;;;10.99;59.78;99084.13;5003819;28;114799;-67
2022/11/22 01:41:42;;;;;;;;;;;;;;;10.97;59.86;99086.03;4998227;28;113740;-67
2022/11/22 01:44:21;;;;;;;;;;;;;;;10.96;59.67;99092.28;5000010;28;124102;-67
2022/11/22 01:46:50;;;;;;;;;;;;;;;10.95;59.73;99095.06;4998245;28;124499;-70
2022/11/22 01:49:24;;;;;;;;;;;;;;;10.92;59.91;99096.13;4983373;28;112966;-67
2022/11/22 01:51:52;;;;;;;;;;;;;;;10.89;59.68;99099.03;4986443;28;112326;-67
2022/11/22 01:54:21;;;;;;;;;;;;;;;10.86;59.71;99101.88;4998056;28;124902;-69
2022/11/22 01:56:52;;;;;;;;;;;;;;;10.86;59.72;99101.88;4993806;28;123908;-69
2022/11/22 01:59:21;;;;;;;;;;;;;;;10.85;59.73;99113.44;4989156;28;113449;-69
2022/11/22 02:01:48;;;;;;;;;;;;;;;10.83;59.82;99110.06;5003245;28;112950;-69
2022/11/22 02:04:16;;;;;;;;;;;;;;;10.80;59.83;99107.66;5001768;28;125678;-69
2022/11/22 02:07:05;;;;;;;;;;;;;;;10.79;59.85;99100.66;5004161;28;124718;-69
2022/11/22 02:09:33;;;;;;;;;;;;;;;10.75;59.69;99109.78;4990665;28;114520;-67
2022/11/22 02:12:01;;;;;;;;;;;;;;;10.70;59.59;99108.31;4989696;28;112689;-67
2022/11/22 02:14:28;;;;;;;;;;;;;;;10.67;59.62;99116.47;5003203;28;124013;-67
2022/11/22 02:16:55;;;;;;;;;;;;;;;10.64;59.95;99114.06;4993255;28;124433;-67
2022/11/22 02:19:29;;;;;;;;;;;;;;;10.62;59.64;99121.25;5002680;28;114614;-67
2022/11/22 02:22:00;;;;;;;;;;;;;;;10.61;59.90;99130.16;5003011;28;115091;-68
2022/11/22 02:24:41;;;;;;;;;;;;;;;10.59;59.68;99124.16;5001853;28;124119;-67
2022/11/22 02:27:07;;;;;;;;;;;;;;;10.58;59.90;99118.97;5003897;28;125572;-67
2022/11/22 02:29:34;;;;;;;;;;;;;;;10.55;59.88;99120.03;5006457;28;114102;-69
2022/11/22 02:32:01;;;;;;;;;;;;;;;10.54;59.90;99117.50;5009158;28;114019;-69
2022/11/22 02:34:28;;;;;;;;;;;;;;;10.53;59.65;99116.66;5005925;28;124361;-69
2022/11/22 02:36:55;;;;;;;;;;;;;;;10.50;59.83;99111.56;5006241;28;124903;-68
2022/11/22 02:39:25;;;;;;;;;;;;;;;10.47;59.88;99117.94;5002194;28;114879;-69
2022/11/22 02:41:53;;;;;;;;;;;;;;;10.47;59.87;99114.44;4986833;28;112871;-67
2022/11/22 02:44:20;;;;;;;;;;;;;;;10.45;59.93;99113.69;5004248;28;124888;-67
2022/11/22 02:46:51;;;;;;;;;;;;;;;10.43;59.84;99120.91;5003115;28;124099;-67
2022/11/22 02:49:19;;;;;;;;;;;;;;;10.41;59.97;99122.81;5006321;28;114663;-67
2022/11/22 02:51:46;;;;;;;;;;;;;;;10.41;60.04;99128.13;5005851;28;113825;-67
2022/11/22 02:54:13;;;;;;;;;;;;;;;10.38;60.04;99123.03;5004849;28;124365;-67
2022/11/22 02:56:40;;;;;;;;;;;;;;;10.37;59.79;99126.66;5004386;28;124048;-67
2022/11/22 02:59:07;;;;;;;;;;;;;;;10.37;60.02;99131.94;5000912;28;114334;-67
2022/11/22 03:01:34;;;;;;;;;;;;;;;10.36;59.91;99140.81;4998428;28;113322;-67
2022/11/22 03:04:01;;;;;;;;;;;;;;;10.35;59.84;99134.69;5002698;28;124192;-67
2022/11/22 03:06:28;;;;;;;;;;;;;;;10.35;59.80;99144.44;4982650;28;123434;-67
2022/11/22 03:08:55;;;;;;;;;;;;;;;10.35;59.92;99144.44;5002209;28;116001;-67
2022/11/22 03:11:23;;;;;;;;;;;;;;;10.35;60.13;99133.88;4997832;28;114464;-67
2022/11/22 03:13:50;;;;;;;;;;;;;;;10.35;59.90;99134.69;4985638;28;123641;-68
2022/11/22 03:16:17;;;;;;;;;;;;;;;10.35;59.88;99136.50;5002852;28;123811;-67
2022/11/22 03:18:43;;;;;;;;;;;;;;;10.31;60.15;99139.38;4986942;28;113869;-67
2022/11/22 03:21:10;;;;;;;;;;;;;;;10.30;59.86;99137.69;5002117;28;113646;-67
2022/11/22 03:23:37;;;;;;;;;;;;;;;10.28;59.96;99147.50;4998295;28;124942;-67
2022/11/22 03:26:08;;;;;;;;;;;;;;;10.27;59.91;99148.44;4990648;28;124976;-68
2022/11/22 03:28:35;;;;;;;;;;;;;;;10.25;59.88;99150.34;4998469;28;115371;-67
2022/11/22 03:31:05;;;;;;;;;;;;;;;10.24;60.09;99148.66;4998264;28;114461;-67
2022/11/22 03:33:33;;;;;;;;;;;;;;;10.23;59.84;99151.44;4998727;28;123842;-68
2022/11/22 03:36:00;;;;;;;;;;;;;;;10.21;59.85;99151.53;5002771;28;124273;-67
2022/11/22 03:38:27;;;;;;;;;;;;;;;10.21;60.09;99154.19;5002080;28;114246;-67
2022/11/22 03:40:53;;;;;;;;;;;;;;;10.20;59.85;99152.47;5004275;28;113973;-68
2022/11/22 03:43:21;;;;;;;;;;;;;;;10.18;60.13;99164.97;5006985;28;123322;-68
2022/11/22 03:45:47;;;;;;;;;;;;;;;10.16;59.92;99172.16;4998735;28;124277;-67
2022/11/22 03:48:14;;;;;;;;;;;;;;;10.12;59.95;99165.41;5003835;28;114091;-68
2022/11/22 03:50:41;;;;;;;;;;;;;;;10.10;59.83;99167.31;5006917;28;114127;-68
2022/11/22 03:53:08;;;;;;;;;;;;;;;10.08;59.84;99166.59;4993213;28;124370;-67
2022/11/22 03:55:35;;;;;;;;;;;;;;;10.06;59.90;99160.56;4980253;28;122899;-67
2022/11/22 03:58:02;;;;;;;;;;;;;;;10.05;59.75;99164.16;5001564;28;116526;-67
2022/11/22 04:00:29;;;;;;;;;;;;;;;10.03;59.74;99176.63;5005195;28;115133;-67
2022/11/22 04:02:56;;;;;;;;;;;;;;;9.99;60.06;99170.72;5001931;28;124301;-67
2022/11/22 04:05:23;;;;;;;;;;;;;;;9.97;59.86;99172.63;5008111;28;123583;-67
2022/11/22 04:07:55;;;;;;;;;;;;;;;9.95;59.93;99174.53;4985784;28;114634;-67
2022/11/22 04:10:23;;;;;;;;;;;;;;;9.93;59.67;99179.06;4998740;28;114542;-67
2022/11/22 04:12:50;;;;;;;;;;;;;;;9.89;59.98;99181.09;5002900;28;124623;-67
2022/11/22 04:15:17;;;;;;;;;;;;;;;9.88;60.01;99179.38;4987371;28;123875;-67
2022/11/22 04:17:44;;;;;;;;;;;;;;;9.86;59.94;99181.28;4993064;28;115381;-67
2022/11/22 04:23:06;;;;;;;;;;;;;;;9.82;59.76;99195.66;4979797;28;123909;-67
2022/11/22 04:25:33;;;;;;;;;;;;;;;9.80;60.00;99196.75;4999694;28;124520;-67
2022/11/22 04:28:01;;;;;;;;;;;;;;;9.78;59.78;99194.19;4993886;28;114674;-67
2022/11/22 04:33:14;;;;;;;;;;;;;;;9.74;60.01;99195.34;5006824;28;124824;-67
2022/11/22 04:35:42;;;;;;;;;;;;;;;9.72;59.99;99197.25;4987953;28;123921;-67
2022/11/22 04:38:09;;;;;;;;;;;;;;;9.71;59.83;99203.50;4989338;28;114573;-67
2022/11/22 04:40:36;;;;;;;;;;;;;;;9.69;59.82;99200.09;5001790;28;113950;-68
2022/11/22 04:45:49;;;;;;;;;;;;;;;9.63;59.84;99211.94;5000937;28;124203;-67
2022/11/22 04:48:17;;;;;;;;;;;;;;;9.60;59.73;99206.84;4985010;28;115706;-67
2022/11/22 04:53:30;;;;;;;;;;;;;;;9.55;59.83;99217.75;5004600;28;124175;-67
2022/11/22 04:55:57;;;;;;;;;;;;;;;9.54;59.74;99218.69;4986540;28;123047;-67
2022/11/22 04:58:24;;;;;;;;;;;;;;;9.53;59.63;99219.66;4986163;28;114500;-67
2022/11/22 05:00:51;;;;;;;;;;;;;;;9.52;59.80;99225.88;5001059;28;113518;-67
2022/11/22 05:03:18;;;;;;;;;;;;;;;9.48;59.96;99224.38;4983603;28;125140;-67
2022/11/22 05:05:45;;;;;;;;;;;;;;;9.47;59.94;99220.03;5002262;28;124010;-67
2022/11/22 05:08:12;;;;;;;;;;;;;;;9.44;60.05;99217.63;5004222;28;114296;-67
2022/11/22 05:10:57;;;;;;;;;;;;;;;9.41;59.96;99215.16;4998008;28;113734;-67
2022/11/22 05:13:31;;;;;;;;;;;;;;;9.38;59.78;99212.75;4997684;28;124206;-67
2022/11/22 05:15:59;;;;;;;;;;;;;;;9.36;59.74;99219.91;4996153;28;124236;-67
2022/11/22 05:18:26;;;;;;;;;;;;;;;9.35;59.92;99223.50;5002244;28;114637;-67
2022/11/22 05:20:53;;;;;;;;;;;;;;;9.34;59.92;99232.38;4978980;28;113764;-67
2022/11/22 05:26:07;;;;;;;;;;;;;;;9.28;59.60;99232.78;5002147;28;123850;-67
2022/11/22 05:28:35;;;;;;;;;;;;;;;9.24;59.62;99241.84;4986603;28;114091;-67
2022/11/22 05:31:06;;;;;;;;;;;;;;;9.22;59.55;99230.53;4999945;28;113639;-67
2022/11/22 05:33:34;;;;;;;;;;;;;;;9.19;59.74;99228.09;4983669;28;124872;-67
2022/11/22 05:36:01;;;;;;;;;;;;;;;9.18;59.95;99226.41;5001321;28;124019;-67
2022/11/22 05:38:28;;;;;;;;;;;;;;;9.16;59.84;99239.72;5002590;28;115391;-67
2022/11/22 05:40:54;;;;;;;;;;;;;;;9.15;60.00;99228.31;4989148;28;115375;-67
2022/11/22 05:43:21;;;;;;;;;;;;;;;9.14;59.91;99231.88;5001846;28;123932;-67
2022/11/22 05:45:48;;;;;;;;;;;;;;;9.12;59.71;99239.06;5000317;28;123774;-67
2022/11/22 05:48:15;;;;;;;;;;;;;;;9.11;59.63;99237.34;4989246;28;113555;-67
2022/11/22 05:50:42;;;;;;;;;;;;;;;9.07;59.52;99225.31;5005567;28;113280;-67
2022/11/22 05:53:08;;;;;;;;;;;;;;;9.05;59.93;99216.63;4994069;28;123003;-67
2022/11/22 05:55:35;;;;;;;;;;;;;;;9.03;59.96;99223.81;5007432;28;123943;-68
2022/11/22 05:58:02;;;;;;;;;;;;;;;9.01;59.90;99220.44;5001743;28;114554;-68
2022/11/22 06:00:29;;;;;;;;;;;;;;;8.98;59.73;99210.06;4992475;28;114257;-68
2022/11/22 06:03:00;;;;;;;;;;;;;;;8.97;59.65;99221.56;5005723;28;124272;-68
2022/11/22 06:05:28;;;;;;;;;;;;;;;8.95;59.77;99218.19;5000320;28;123849;-68
2022/11/22 06:07:59;;;;;;;;;;;;;;;8.93;59.74;99220.09;5003522;28;114066;-68
2022/11/22 06:10:26;;;;;;;;;;;;;;;8.91;59.90;99219.31;5001418;28;113842;-68
2022/11/22 06:12:53;;;;;;;;;;;;;;;8.89;59.84;99221.19;5008517;28;125146;-69
2022/11/22 06:15:20;;;;;;;;;;;;;;;8.88;59.71;99225.66;4986622;28;123876;-67
2022/11/22 06:17:47;;;;;;;;;;;;;;;8.87;60.01;99228.38;5000360;28;114714;-67
2022/11/22 06:20:14;;;;;;;;;;;;;;;8.87;59.92;99238.94;5004905;28;114383;-67
2022/11/22 06:22:41;;;;;;;;;;;;;;;8.85;59.94;99235.56;4993330;28;122465;-67
2022/11/22 06:25:08;;;;;;;;;;;;;;;8.84;60.06;99239.16;4988581;28;124969;-67
2022/11/22 06:27:35;;;;;;;;;;;;;;;8.83;59.77;99253.28;5005849;28;115530;-67
2022/11/22 06:30:02;;;;;;;;;;;;;;;8.82;59.66;99246.31;5004748;28;115148;-67
2022/11/22 06:32:31;;;;;;;;;;;;;;;8.81;59.71;99247.25;5007864;28;124221;-68
2022/11/22 06:34:58;;;;;;;;;;;;;;;8.80;59.75;99237.63;5005834;28;124715;-67
2022/11/22 06:37:24;;;;;;;;;;;;;;;8.79;60.01;99235.94;5002830;28;114236;-67
2022/11/22 06:39:51;;;;;;;;;;;;;;;8.76;59.97;99237.84;5001136;28;114185;-68
2022/11/22 06:42:18;;;;;;;;;;;;;;;8.75;59.82;99236.13;4995430;28;123094;-68
2022/11/22 06:44:45;;;;;;;;;;;;;;;8.74;59.86;99242.38;4994520;28;124545;-68
2022/11/22 06:47:12;;;;;;;;;;;;;;;8.73;59.71;99245.94;4992945;28;114341;-67
2022/11/22 06:49:39;;;;;;;;;;;;;;;8.71;60.06;99239.91;5001393;28;113660;-67
2022/11/22 06:52:06;;;;;;;;;;;;;;;8.71;59.80;99234.63;4995242;28;124304;-68
2022/11/22 06:54:33;;;;;;;;;;;;;;;8.71;59.75;99244.34;4965168;28;123047;-67
2022/11/22 06:56:59;;;;;;;;;;;;;;;8.70;59.68;99251.44;4998255;28;114266;-68
2022/11/22 06:59:26;;;;;;;;;;;;;;;8.69;59.74;99257.66;4982658;28;114223;-68
2022/11/22 07:01:54;;;;;;;;;;;;;;;8.67;59.95;99256.91;4998025;28;124341;-67
2022/11/22 07:04:21;;;;;;;;;;;;;;;8.66;59.80;99264.91;4994293;28;125034;-68
2022/11/22 07:06:47;;;;;;;;;;;;;;;8.64;59.93;99259.72;5003957;28;115236;-68
2022/11/22 07:09:15;;;;;;;;;;;;;;;8.62;59.69;99266.88;4973850;28;112552;-68
2022/11/22 07:11:41;;;;;;;;;;;;;;;8.58;59.77;99276.78;4998905;28;126163;-67
2022/11/22 07:14:08;;;;;;;;;;;;;;;8.56;59.94;99272.56;5007013;28;124833;-68
2022/11/22 07:16:36;;;;;;;;;;;;;;;8.53;59.92;99272.72;4997745;28;115339;-68
2022/11/22 07:19:03;;;;;;;;;;;;;;;8.53;59.42;99272.72;5000866;28;114436;-67
2022/11/22 07:21:31;;;;;;;;;;;;;;;8.52;59.65;99281.59;4986079;28;124604;-67
2022/11/22 07:23:58;;;;;;;;;;;;;;;8.50;59.80;99280.84;5008607;28;124524;-67
2022/11/22 07:26:25;;;;;;;;;;;;;;;8.50;59.70;99288.78;4981881;28;114324;-68
2022/11/22 07:28:51;;;;;;;;;;;;;;;8.48;59.98;99291.50;5006708;28;112950;-68
2022/11/22 07:31:19;;;;;;;;;;;;;;;8.49;60.00;99294.97;4988162;28;124067;-67
2022/11/22 07:33:46;;;;;;;;;;;;;;;8.48;59.92;99296.78;4980287;28;124626;-67
2022/11/22 07:36:17;;;;;;;;;;;;;;;8.49;59.89;99300.25;4988385;28;113906;-68
2022/11/22 07:38:45;;;;;;;;;;;;;;;8.50;59.91;99299.31;5006449;28;114942;-68
2022/11/22 07:41:12;;;;;;;;;;;;;;;8.51;59.99;99293.97;5005027;28;124520;-68
2022/11/22 07:43:39;;;;;;;;;;;;;;;8.55;60.05;99307.78;5003123;28;123979;-68
2022/11/22 07:46:07;;;;;;;;;;;;;;;8.59;60.14;99314.59;4993732;28;113238;-68
2022/11/22 07:48:34;;;;;;;;;;;;;;;8.62;60.07;99306.47;5009671;28;114136;-68
2022/11/22 07:51:05;;;;;;;;;;;;;;;8.65;60.26;99308.94;5005406;28;124758;-68
2022/11/22 07:53:33;;;;;;;;;;;;;;;8.70;60.16;99306.84;4999834;28;123738;-68
2022/11/22 07:56:04;;;;;;;;;;;;;;;8.75;60.35;99304.75;4999980;28;113289;-68
2022/11/22 07:58:31;;;;;;;;;;;;;;;8.80;60.46;99309.78;5012795;28;114301;-68
2022/11/22 08:01:03;;;;;;;;;;;;;;;8.85;60.37;99309.47;5003137;28;123514;-68
2022/11/22 08:03:30;;;;;;;;;;;;;;;8.89;60.41;99310.97;4995470;28;124231;-68
2022/11/22 08:06:00;;;;;;;;;;;;;;;8.94;60.07;99319.47;5015431;28;115763;-68
2022/11/22 08:08:28;;;;;;;;;;;;;;;8.98;59.99;99315.66;4987422;28;114046;-69
2022/11/22 08:10:55;;;;;;;;;;;;;;;9.02;60.13;99311.88;5006058;28;123814;-67
2022/11/22 08:13:21;;;;;;;;;;;;;;;9.06;60.25;99313.41;4999634;28;124835;-68
2022/11/22 08:15:49;;;;;;;;;;;;;;;9.12;60.45;99307.72;4986006;28;114343;-67
2022/11/22 08:18:20;;;;;;;;;;;;;;;9.15;60.12;99310.19;5001458;28;114031;-68
2022/11/22 08:20:47;;;;;;;;;;;;;;;9.20;60.41;99314.31;5000194;28;124023;-68
2022/11/22 08:23:14;;;;;;;;;;;;;;;9.24;60.31;99315.81;4998371;28;124058;-68
2022/11/22 08:25:40;;;;;;;;;;;;;;;9.27;60.33;99315.63;5007264;28;113816;-68
2022/11/22 08:28:07;;;;;;;;;;;;;;;9.31;60.21;99317.97;5000216;28;114382;-68
2022/11/22 08:30:34;;;;;;;;;;;;;;;9.34;60.28;99322.19;5001976;28;124844;-69
2022/11/22 08:33:01;;;;;;;;;;;;;;;9.38;60.38;99317.56;5003712;28;125013;-68
2022/11/22 08:35:28;;;;;;;;;;;;;;;9.42;60.03;99316.41;4994138;28;115010;-68
2022/11/22 08:37:55;;;;;;;;;;;;;;;9.46;60.30;99310.84;5011564;28;113970;-69
2022/11/22 08:40:22;;;;;;;;;;;;;;;9.48;60.01;99302.81;5015142;28;124498;-70
2022/11/22 08:42:51;;;;;;;;;;;;;;;9.52;60.05;99310.44;5004601;28;124197;-67
2022/11/22 08:45:18;;;;;;;;;;;;;;;9.57;60.07;99311.94;5006133;28;114551;-68
2022/11/22 08:47:45;;;;;;;;;;;;;;;9.60;59.86;99309.09;4999705;28;113661;-68
2022/11/22 08:50:12;;;;;;;;;;;;;;;9.63;60.18;99311.53;5003678;28;124010;-68
2022/11/22 08:52:39;;;;;;;;;;;;;;;9.67;60.21;99310.38;4995726;28;124481;-68
2022/11/22 08:55:06;;;;;;;;;;;;;;;9.71;60.17;99314.50;4974021;28;115199;-68
2022/11/22 08:57:33;;;;;;;;;;;;;;;9.73;60.05;99317.91;4992259;28;113700;-68
2022/11/22 09:00:00;;;;;;;;;;;;;;;9.78;60.04;99326.38;4993805;28;123618;-68
2022/11/22 09:02:27;;;;;;;;;;;;;;;9.83;60.41;99323.44;4975919;28;123675;-67
2022/11/22 09:04:54;;;;;;;;;;;;;;;9.86;60.10;99329.34;4998144;28;114464;-68
2022/11/22 09:07:20;;;;;;;;;;;;;;;9.90;60.00;99330.84;4996572;28;113932;-68
2022/11/22 09:10:07;;;;;;;;;;;;;;;9.97;60.19;99330.47;5010569;28;123871;-68
2022/11/22 09:12:34;;;;;;;;;;;;;;;10.00;60.30;99335.53;5002092;28;124527;-69
2022/11/22 09:15:01;;;;;;;;;;;;;;;10.02;60.21;99344.19;4986213;28;114575;-68
2022/11/22 09:17:28;;;;;;;;;;;;;;;10.06;60.06;99338.63;5000080;28;114169;-68
2022/11/22 09:19:54;;;;;;;;;;;;;;;10.09;60.00;99340.19;5003020;28;124228;-68
2022/11/22 09:22:21;;;;;;;;;;;;;;;10.12;60.01;99340.84;5009853;28;124189;-69
2022/11/22 09:24:54;;;;;;;;;;;;;;;10.16;59.98;99341.50;5007369;28;114307;-69
2022/11/22 09:27:21;;;;;;;;;;;;;;;10.20;60.01;99337.69;4990466;28;117150;-68
2022/11/22 09:29:47;;;;;;;;;;;;;;;10.23;59.93;99323.41;5002828;28;124935;-68
2022/11/22 09:32:14;;;;;;;;;;;;;;;10.26;59.89;99337.25;4993192;28;124614;-68
2022/11/22 09:34:41;;;;;;;;;;;;;;;10.30;59.99;99338.78;5010697;28;114230;-69
2022/11/22 09:37:08;;;;;;;;;;;;;;;10.35;60.04;99345.56;4995437;28;113635;-69
2022/11/22 09:39:35;;;;;;;;;;;;;;;10.40;59.99;99348.75;4991189;28;124819;-68
2022/11/22 09:42:11;;;;;;;;;;;;;;;10.44;60.04;99355.53;4989915;28;124121;-69
2022/11/22 09:44:44;;;;;;;;;;;;;;;10.49;59.99;99350.75;4997172;28;115630;-69
2022/11/22 09:47:20;;;;;;;;;;;;;;;10.53;59.90;99349.59;4996528;28;114359;-68
2022/11/22 09:50:01;;;;;;;;;;;;;;;10.57;59.98;99350.22;5010327;28;124358;-69
2022/11/22 09:52:51;;;;;;;;;;;;;;;10.61;60.05;99347.25;4977380;28;123895;-68
2022/11/22 09:55:23;;;;;;;;;;;;;;;10.63;60.03;99340.06;4999041;28;114583;-69
2022/11/22 09:58:08;;;;;;;;;;;;;;;10.67;59.97;99330.94;5011848;28;114234;-69
2022/11/22 10:00:35;;;;;;;;;;;;;;;10.71;60.09;99332.41;5008803;28;124108;-69
2022/11/22 10:03:11;;;;;;;;;;;;;;;10.75;60.08;99326.91;5011237;28;124011;-68
2022/11/22 10:05:48;;;;;;;;;;;;;;;10.80;59.94;99322.16;4972019;28;115105;-69
2022/11/22 10:08:35;;;;;;;;;;;;;;;10.82;59.79;99333.47;5005062;28;114462;-68
2022/11/22 10:11:12;;;;;;;;;;;;;;;10.85;59.79;99327.94;5008821;28;124343;-68
2022/11/22 10:13:46;;;;;;;;;;;;;;;10.88;59.75;99327.75;4991810;28;123062;-69
2022/11/22 10:16:24;;;;;;;;;;;;;;;10.91;59.71;99319.59;4998616;28;113684;-68
2022/11/22 10:19:00;;;;;;;;;;;;;;;10.95;59.72;99323.72;4971938;28;113525;-69
2022/11/22 10:21:27;;;;;;;;;;;;;;;10.98;59.91;99328.81;5000561;28;124833;-69
2022/11/22 10:23:53;;;;;;;;;;;;;;;11.02;59.73;99335.56;4978097;28;122055;-68
2022/11/22 10:26:31;;;;;;;;;;;;;;;11.04;59.89;99322.22;5010321;28;114894;-68
2022/11/22 10:29:07;;;;;;;;;;;;;;;11.07;59.73;99322.81;4989611;28;114740;-69
2022/11/22 10:31:46;;;;;;;;;;;;;;;11.10;59.57;99317.31;4989882;28;124422;-69
2022/11/22 10:34:39;;;;;;;;;;;;;;;11.12;59.70;99313.72;4987560;28;123836;-68
2022/11/22 10:37:24;;;;;;;;;;;;;;;11.15;59.69;99326.72;4987010;28;115358;-68
2022/11/22 10:40:13;;;;;;;;;;;;;;;11.16;59.55;99326.63;4990765;28;115353;-69
2022/11/22 10:42:43;;;;;;;;;;;;;;;11.16;59.48;99315.19;4990164;28;127024;-69
2022/11/22 10:45:09;;;;;;;;;;;;;;;11.15;59.54;99319.66;5013327;27;124800;-69
2022/11/22 10:47:55;;;;;;;;;;;;;;;11.18;59.51;99305.31;5014021;28;114605;-68
2022/11/22 10:50:24;;;;;;;;;;;;;;;11.18;59.38;99303.50;4975971;28;111978;-68
2022/11/22 10:52:54;;;;;;;;;;;;;;;11.21;59.65;99307.75;4979676;28;124079;-69
2022/11/22 10:55:34;;;;;;;;;;;;;;;11.23;59.55;99300.53;4991849;28;124299;-69
2022/11/22 10:58:00;;;;;;;;;;;;;;;11.27;59.65;99296.72;5013950;28;115289;-68
2022/11/22 11:00:30;;;;;;;;;;;;;;;11.31;59.55;99292.88;5002320;28;113485;-68
2022/11/22 11:03:15;;;;;;;;;;;;;;;11.33;59.77;99290.94;5005748;28;124094;-68
2022/11/22 11:05:45;;;;;;;;;;;;;;;11.38;59.77;99288.81;5001669;28;123333;-69
2022/11/22 11:08:38;;;;;;;;;;;;;;;11.44;59.76;99287.50;4998489;28;113712;-70
2022/11/22 11:11:25;;;;;;;;;;;;;;;11.49;59.71;99296.81;5009267;28;113177;-69
2022/11/22 11:13:57;;;;;;;;;;;;;;;11.52;59.61;99287.78;4991079;28;124124;-67
2022/11/22 11:16:25;;;;;;;;;;;;;;;11.55;59.49;99284.09;4993103;28;123785;-68
2022/11/22 11:19:10;;;;;;;;;;;;;;;11.59;59.44;99274.94;4975377;28;113517;-68
2022/11/22 11:21:37;;;;;;;;;;;;;;;11.60;59.46;99281.91;4992718;28;112806;-68
2022/11/22 11:24:10;;;;;;;;;;;;;;;11.63;59.43;99284.34;5005243;28;124109;-68
2022/11/22 11:26:37;;;;;;;;;;;;;;;11.65;59.42;99274.47;4990465;28;125002;-68
2022/11/22 11:29:16;;;;;;;;;;;;;;;11.68;59.51;99274.25;4992169;28;115876;-68
2022/11/22 11:31:47;;;;;;;;;;;;;;;11.71;59.37;99268.69;5006769;28;114290;-68
2022/11/22 11:34:27;;;;;;;;;;;;;;;11.74;59.50;99275.59;5003612;28;124422;-68
2022/11/22 11:36:56;;;;;;;;;;;;;;;11.76;59.39;99261.25;5007369;28;123975;-68
2022/11/22 11:39:26;;;;;;;;;;;;;;;11.79;59.30;99268.13;4994170;28;114299;-68
2022/11/22 11:41:54;;;;;;;;;;;;;;;11.83;59.38;99259.81;5009937;28;113831;-69
2022/11/22 11:44:30;;;;;;;;;;;;;;;11.87;59.38;99263.94;4973150;28;122950;-68
2022/11/22 11:46:58;;;;;;;;;;;;;;;11.90;59.38;99268.19;5003091;28;124289;-68
2022/11/22 11:49:31;;;;;;;;;;;;;;;11.93;59.30;99265.31;5015300;28;114589;-68
2022/11/22 11:52:07;;;;;;;;;;;;;;;11.95;59.10;99271.34;5018702;28;114773;-68
2022/11/22 11:54:37;;;;;;;;;;;;;;;11.96;59.12;99266.88;5022169;28;124715;-68
2022/11/22 11:57:09;;;;;;;;;;;;;;;11.96;59.14;99261.56;4999524;28;125524;-68
2022/11/22 11:59:36;;;;;;;;;;;;;;;11.97;59.20;99257.97;4988496;28;113983;-68
2022/11/22 12:02:02;;;;;;;;;;;;;;;11.98;59.08;99267.59;4996738;28;114507;-68
2022/11/22 12:04:32;;;;;;;;;;;;;;;11.97;58.98;99264.09;5002049;28;124445;-68
2022/11/22 12:07:03;;;;;;;;;;;;;;;11.97;58.84;99260.63;5011978;28;124053;-68
2022/11/22 12:09:32;;;;;;;;;;;;;;;11.96;59.05;99261.56;4971508;28;114465;-68
2022/11/22 12:12:18;;;;;;;;;;;;;;;11.97;59.04;99268.56;4996114;28;113559;-68
2022/11/22 12:14:50;;;;;;;;;;;;;;;11.96;59.01;99256.25;4982750;28;124259;-68
2022/11/22 12:17:42;;;;;;;;;;;;;;;11.96;58.91;99258.91;4998817;28;124019;-68
2022/11/22 12:20:29;;;;;;;;;;;;;;;11.95;58.84;99265.19;4997098;28;116975;-68
2022/11/22 12:23:13;;;;;;;;;;;;;;;11.96;58.75;99277.47;5000800;28;114775;-68
2022/11/22 12:25:41;;;;;;;;;;;;;;;11.95;58.86;99265.19;5002954;28;124671;-68
2022/11/22 12:28:15;;;;;;;;;;;;;;;11.93;58.81;99265.31;5000246;28;124580;-68
2022/11/22 12:30:43;;;;;;;;;;;;;;;11.94;59.01;99268.78;4995648;28;114215;-68
2022/11/22 12:33:18;;;;;;;;;;;;;;;11.93;58.88;99267.97;4994084;28;113634;-69
2022/11/22 12:35:45;;;;;;;;;;;;;;;11.93;58.63;99267.13;4972019;28;123849;-68
2022/11/22 12:38:16;;;;;;;;;;;;;;;11.92;58.76;99265.41;4991991;28;123993;-68
2022/11/22 12:40:45;;;;;;;;;;;;;;;11.92;58.70;99260.09;4994624;28;114520;-68
2022/11/22 12:43:19;;;;;;;;;;;;;;;11.93;58.77;99261.81;4974104;28;112731;-68
2022/11/22 12:45:48;;;;;;;;;;;;;;;11.94;58.85;99263.50;4998359;28;123175;-68
2022/11/22 12:48:18;;;;;;;;;;;;;;;11.94;58.73;99259.06;5000093;28;124427;-68
2022/11/22 12:50:46;;;;;;;;;;;;;;;11.95;58.99;99265.19;5001625;28;114299;-68
2022/11/22 12:53:16;;;;;;;;;;;;;;;11.96;58.72;99261.56;4995100;28;113831;-68
2022/11/22 12:55:46;;;;;;;;;;;;;;;11.97;58.68;99258.78;4993721;28;124894;-68
2022/11/22 12:58:19;;;;;;;;;;;;;;;11.98;58.84;99263.16;5000142;28;123709;-69
2022/11/22 13:01:06;;;;;;;;;;;;;;;11.99;58.65;99266.66;4983607;28;114559;-68
2022/11/22 13:03:37;;;;;;;;;;;;;;;11.99;58.75;99266.66;4979440;28;113721;-68
2022/11/22 13:06:06;;;;;;;;;;;;;;;11.98;58.67;99264.94;4999253;28;123507;-68